Time;durP1;ratioP1;P1;durP2;ratioP2;P2;SDS_P1;SDS_P2;PMS_P1;PMS_P2;Temp;Humidity;BMP_temperature;BMP_pressure;BME280_temperature;BME280_humidity;BME280_pressure;Samples;Min_cycle;Max_cycle;Signal;HPM_P1;HPM_P2
2023/03/16 00:04:36;;;;;;;0.60;0.52;;;;;;;19.64;46.25;97194.72;10420118;28;20050;-47
2023/03/16 00:09:56;;;;;;;0.82;0.65;;;;;;;19.63;46.17;97197.75;10405279;28;20057;-45
2023/03/16 00:15:15;;;;;;;0.50;0.50;;;;;;;19.62;46.16;97193.44;10432778;28;20052;-45
2023/03/16 00:20:35;;;;;;;0.90;0.60;;;;;;;19.62;46.19;97201.53;10419228;28;20053;-46
2023/03/16 00:25:58;;;;;;;0.90;0.70;;;;;;;19.60;46.06;97201.06;10429220;28;20049;-48
2023/03/16 00:31:18;;;;;;;0.82;0.80;;;;;;;19.58;46.14;97198.66;10460139;28;20412;-45
2023/03/16 00:36:37;;;;;;;0.95;0.68;;;;;;;19.58;46.07;97200.56;10473700;28;20051;-46
2023/03/16 00:41:57;;;;;;;0.70;0.60;;;;;;;19.56;46.06;97199.00;10459639;28;20060;-46
2023/03/16 00:47:16;;;;;;;0.90;0.60;;;;;;;19.54;45.95;97195.81;10459669;28;20098;-46
2023/03/16 00:52:36;;;;;;;0.50;0.50;;;;;;;19.53;45.86;97191.50;10458864;28;20126;-47
2023/03/16 00:57:55;;;;;;;3.05;0.73;;;;;;;19.52;45.73;97208.03;10459123;28;20404;-45
2023/03/16 01:03:14;;;;;;;1.02;0.80;;;;;;;19.51;45.79;97209.94;10459055;28;20076;-45
2023/03/16 01:08:35;;;;;;;0.68;0.68;;;;;;;19.50;45.79;97219.16;10458443;28;20412;-46
2023/03/16 01:13:54;;;;;;;0.68;0.60;;;;;;;19.48;45.71;97221.41;10442759;28;20057;-47
2023/03/16 01:19:14;;;;;;;0.77;0.55;;;;;;;19.47;45.72;97217.09;10458611;28;20068;-48
2023/03/16 01:24:34;;;;;;;1.30;0.80;;;;;;;19.47;45.67;97219.00;10457732;28;20075;-45
2023/03/16 01:29:53;;;;;;;1.10;0.73;;;;;;;19.46;45.62;97225.50;10428573;28;20083;-47
2023/03/16 01:35:13;;;;;;;0.70;0.70;;;;;;;19.43;45.71;97221.53;10471195;28;20037;-47
2023/03/16 01:40:33;;;;;;;0.93;0.80;;;;;;;19.41;45.59;97226.44;10456906;28;20059;-45
2023/03/16 01:45:55;;;;;;;0.80;0.70;;;;;;;19.42;45.56;97227.22;10455553;28;20072;-47
2023/03/16 01:51:21;;;;;;;1.00;0.77;;;;;;;19.39;45.62;97231.38;10455834;28;20041;-46
2023/03/16 01:56:47;;;;;;;0.68;0.63;;;;;;;19.38;45.48;97231.66;10456377;28;20056;-46
2023/03/16 02:02:07;;;;;;;0.85;0.82;;;;;;;19.37;45.56;97239.00;10456666;28;20056;-48
2023/03/16 02:07:28;;;;;;;1.10;0.80;;;;;;;19.34;45.50;97229.59;10441072;28;20515;-48
2023/03/16 02:12:48;;;;;;;0.75;0.73;;;;;;;19.34;45.40;97236.91;10441271;28;20060;-45
2023/03/16 02:18:07;;;;;;;0.70;0.70;;;;;;;19.32;45.51;97231.00;10440385;28;20053;-47
2023/03/16 02:23:28;;;;;;;0.93;0.80;;;;;;;19.30;45.31;97238.63;10441445;28;20107;-45
2023/03/16 02:29:00;;;;;;;0.80;0.80;;;;;;;19.28;45.26;97240.84;10440513;28;20485;-47
2023/03/16 02:34:22;;;;;;;0.60;0.60;;;;;;;19.27;45.19;97244.69;10440967;28;20053;-47
2023/03/16 02:39:42;;;;;;;2.25;0.90;;;;;;;19.25;45.28;97253.09;10454239;28;20041;-47
2023/03/16 02:45:05;;;;;;;1.23;0.85;;;;;;;19.24;45.15;97256.09;10441032;28;20057;-45
2023/03/16 02:50:28;;;;;;;1.27;0.80;;;;;;;19.22;45.35;97261.78;10440251;28;20565;-47
2023/03/16 02:55:47;;;;;;;1.20;0.90;;;;;;;19.21;45.21;97256.69;10455162;28;20064;-46
2023/03/16 03:01:07;;;;;;;0.77;0.60;;;;;;;19.19;45.16;97259.72;10440721;28;20057;-45
2023/03/16 03:06:28;;;;;;;0.88;0.80;;;;;;;19.18;45.09;97268.94;10440908;28;20099;-47
2023/03/16 03:11:47;;;;;;;0.90;0.70;;;;;;;19.15;45.12;97267.66;10440348;28;20061;-45
2023/03/16 03:17:08;;;;;;;0.73;0.73;;;;;;;19.15;45.11;97266.84;10440474;28;20049;-47
2023/03/16 03:22:28;;;;;;;0.70;0.70;;;;;;;19.13;45.06;97260.94;10440320;28;20110;-48
2023/03/16 03:27:49;;;;;;;0.70;0.70;;;;;;;19.11;45.06;97263.97;10455316;28;20061;-46
2023/03/16 03:33:12;;;;;;;1.05;0.88;;;;;;;19.11;45.07;97265.84;10446903;28;20052;-47
2023/03/16 03:38:32;;;;;;;0.70;0.70;;;;;;;19.08;45.09;97264.59;10462391;28;20056;-46
2023/03/16 03:43:51;;;;;;;0.88;0.80;;;;;;;19.06;45.01;97277.59;10447072;28;20053;-46
2023/03/16 03:49:11;;;;;;;0.70;0.70;;;;;;;19.06;45.04;97277.59;10459927;28;20044;-44
2023/03/16 03:54:30;;;;;;;0.77;0.70;;;;;;;19.04;45.07;97279.81;10461274;28;20057;-46
2023/03/16 03:59:52;;;;;;;0.60;0.60;;;;;;;19.03;44.99;97267.41;10460909;28;20102;-45
2023/03/16 04:05:31;;;;;;;0.77;0.77;;;;;;;19.00;44.97;97281.53;10461228;28;20061;-47
2023/03/16 04:10:50;;;;;;;0.70;0.70;;;;;;;19.00;44.89;97288.84;10461486;28;20053;-45
2023/03/16 04:16:15;;;;;;;1.10;0.68;;;;;;;18.99;44.96;97287.25;10459297;28;20045;-47
2023/03/16 04:21:36;;;;;;;0.93;0.80;;;;;;;18.95;44.81;97285.19;10445766;28;20057;-48
2023/03/16 04:26:56;;;;;;;1.13;0.80;;;;;;;18.96;44.84;97294.84;10460604;28;20055;-47
2023/03/16 04:32:16;;;;;;;0.60;0.60;;;;;;;18.93;44.92;97297.38;10460258;28;20057;-45
2023/03/16 04:37:36;;;;;;;1.00;0.80;;;;;;;18.91;44.90;97297.66;10458206;28;20045;-46
2023/03/16 04:42:58;;;;;;;1.30;0.90;;;;;;;18.90;44.75;97308.78;10457881;28;20037;-46
2023/03/16 04:48:17;;;;;;;0.60;0.60;;;;;;;18.89;44.73;97312.59;10459875;28;20102;-46
2023/03/16 04:53:37;;;;;;;0.80;0.60;;;;;;;18.87;44.79;97323.69;10452133;28;20045;-48
2023/03/16 04:59:04;;;;;;;0.68;0.68;;;;;;;18.85;44.80;97314.31;10444137;28;20056;-46
2023/03/16 05:04:34;;;;;;;0.60;0.60;;;;;;;18.84;44.67;97320.81;10443698;28;20503;-48
2023/03/16 05:09:55;;;;;;;0.70;0.70;;;;;;;18.81;44.77;97316.81;10443500;28;20067;-45
2023/03/16 05:15:15;;;;;;;1.27;0.70;;;;;;;18.81;44.84;97318.72;10456861;28;20068;-48
2023/03/16 05:20:37;;;;;;;0.80;0.80;;;;;;;18.80;45.02;97311.72;10440041;28;20054;-45
2023/03/16 05:25:58;;;;;;;0.52;0.52;;;;;;;18.79;45.25;97316.28;10406770;28;20056;-45
2023/03/16 05:31:19;;;;;;;0.70;0.70;;;;;;;18.79;45.76;97321.69;10423635;28;20099;-48
2023/03/16 05:36:44;;;;;;;0.70;0.70;;;;;;;18.81;45.39;97319.50;10417287;28;20037;-46
2023/03/16 05:42:07;;;;;;;1.65;0.70;;;;;;;18.82;45.32;97317.59;10401321;28;20060;-47
2023/03/16 05:47:39;;;;;;;2.40;1.10;;;;;;;18.82;45.03;97325.69;10413702;28;20053;-48
2023/03/16 05:53:00;;;;;;;5.70;1.13;;;;;;;18.83;45.10;97319.22;10440993;28;20060;-47
2023/03/16 05:58:20;;;;;;;1.70;1.27;;;;;;;18.86;45.02;97332.13;10427201;28;20724;-48
2023/03/16 06:03:41;;;;;;;2.00;1.80;;;;;;;18.79;43.88;97319.00;10428807;28;20041;-48
2023/03/16 06:09:03;;;;;;;3.30;2.70;;;;;;;18.83;44.67;97333.50;10428645;28;20049;-46
2023/03/16 06:14:24;;;;;;;5.30;3.05;;;;;;;18.87;44.41;97334.47;10436720;28;20575;-47
2023/03/16 06:19:46;;;;;;;3.25;2.70;;;;;;;18.91;44.22;97342.78;10452880;28;20445;-48
2023/03/16 06:25:08;;;;;;;5.53;3.75;;;;;;;18.93;44.08;97346.78;10441155;28;20099;-46
2023/03/16 06:30:28;;;;;;;8.65;4.35;;;;;;;18.97;44.13;97349.63;10441268;28;20057;-48
2023/03/16 06:35:49;;;;;;;11.80;4.93;;;;;;;19.00;44.17;97353.66;10455985;28;20053;-48
2023/03/16 06:41:17;;;;;;;9.57;4.53;;;;;;;19.03;44.25;97355.72;10441051;28;20061;-47
2023/03/16 06:46:39;;;;;;;8.82;4.50;;;;;;;19.07;44.39;97362.91;10440947;28;20053;-45
2023/03/16 06:52:02;;;;;;;8.25;4.45;;;;;;;19.10;44.43;97364.19;10440731;28;20467;-45
2023/03/16 06:57:24;;;;;;;9.93;4.60;;;;;;;19.12;44.47;97373.59;10440634;28;20049;-46
2023/03/16 07:02:44;;;;;;;9.88;4.70;;;;;;;19.17;44.43;97389.69;10440838;28;20071;-45
2023/03/16 07:08:05;;;;;;;9.38;4.40;;;;;;;19.22;44.37;97396.06;10448629;28;20045;-47
2023/03/16 07:13:25;;;;;;;8.45;4.68;;;;;;;19.25;44.39;97393.53;10463298;28;20056;-47
2023/03/16 07:18:44;;;;;;;9.63;4.60;;;;;;;19.29;44.60;97397.22;10476160;28;20451;-46
2023/03/16 07:24:08;;;;;;;9.15;4.22;;;;;;;19.34;44.40;97390.88;10461171;28;20041;-47
2023/03/16 07:29:30;;;;;;;7.68;4.25;;;;;;;19.38;44.39;97393.78;10446775;28;20551;-47
2023/03/16 07:34:50;;;;;;;7.53;3.92;;;;;;;19.42;44.33;97397.47;10426211;28;20049;-46
2023/03/16 07:40:10;;;;;;;11.63;4.28;;;;;;;19.46;44.21;97401.13;10415689;28;20052;-47
2023/03/16 07:45:30;;;;;;;6.65;3.90;;;;;;;19.49;44.41;97409.44;10412055;28;20045;-47
2023/03/16 07:50:50;;;;;;;7.20;4.35;;;;;;;19.52;44.27;97402.59;10421237;28;20053;-47
2023/03/16 07:56:11;;;;;;;6.53;3.83;;;;;;;19.54;44.36;97406.59;10425491;28;20124;-49
2023/03/16 08:01:33;;;;;;;6.82;3.78;;;;;;;19.58;44.36;97405.97;10405298;28;20060;-48
2023/03/16 08:06:58;;;;;;;5.38;3.78;;;;;;;19.60;44.49;97417.25;10405092;28;20041;-45
2023/03/16 08:12:19;;;;;;;6.57;3.75;;;;;;;19.39;41.96;97415.09;10435466;28;20490;-49
2023/03/16 08:17:42;;;;;;;6.75;3.90;;;;;;;19.50;41.84;97416.44;10409078;28;20108;-47
2023/03/16 08:23:07;;;;;;;4.85;4.07;;;;;;;19.58;42.45;97427.59;10403692;28;20497;-47
2023/03/16 08:28:31;;;;;;;5.95;3.72;;;;;;;19.63;42.40;97420.16;10403947;28;20107;-48
2023/03/16 08:33:53;;;;;;;7.85;3.78;;;;;;;19.68;42.46;97417.34;10417322;28;20046;-47
2023/03/16 08:39:18;;;;;;;6.53;3.70;;;;;;;19.71;42.41;97413.19;10403752;28;20053;-47
2023/03/16 08:44:40;;;;;;;5.25;3.70;;;;;;;19.75;42.50;97411.50;10418447;28;20103;-46
2023/03/16 08:50:00;;;;;;;6.32;3.72;;;;;;;19.81;42.65;97420.28;10431654;28;20041;-48
2023/03/16 08:55:20;;;;;;;8.18;7.05;;;;;;;19.70;36.25;97444.06;10417323;28;20057;-46
2023/03/16 09:00:40;;;;;;;4.78;3.53;;;;;;;19.65;40.48;97434.16;10425912;28;20057;-49
2023/03/16 09:06:05;;;;;;;5.75;4.00;;;;;;;19.75;40.95;97436.63;10417429;28;20069;-46
2023/03/16 09:11:29;;;;;;;7.15;4.18;;;;;;;19.82;41.10;97427.31;10436277;28;20394;-49
2023/03/16 09:16:49;;;;;;;4.97;4.00;;;;;;;19.88;41.19;97426.84;10435408;28;20061;-45
2023/03/16 09:22:09;;;;;;;5.80;3.88;;;;;;;19.93;41.09;97432.13;10435544;28;20099;-46
2023/03/16 09:27:29;;;;;;;5.65;3.83;;;;;;;19.98;41.31;97423.06;10450369;28;20049;-49
2023/03/16 09:32:49;;;;;;;5.93;3.75;;;;;;;20.01;41.38;97425.13;10416478;28;20558;-48
2023/03/16 09:38:09;;;;;;;4.95;3.38;;;;;;;20.05;41.48;97430.72;10438569;28;20481;-45
2023/03/16 09:43:28;;;;;;;4.47;3.47;;;;;;;20.10;41.58;97436.00;10450318;28;20041;-45
2023/03/16 09:48:48;;;;;;;5.95;3.80;;;;;;;20.13;41.56;97438.06;10422788;28;20068;-46
2023/03/16 09:54:33;;;;;;;4.28;3.42;;;;;;;20.17;41.68;97447.19;10421178;28;20485;-46
2023/03/16 09:59:54;;;;;;;4.20;3.42;;;;;;;20.20;41.31;97449.25;10428596;28;20391;-47
2023/03/16 10:05:15;;;;;;;3.72;3.17;;;;;;;20.14;40.91;97434.28;10400467;28;20448;-47
2023/03/16 10:10:46;;;;;;;5.78;3.33;;;;;;;20.18;41.21;97437.94;10421954;28;20044;-48
2023/03/16 10:16:14;;;;;;;4.15;3.20;;;;;;;20.21;41.25;97440.03;10449432;28;20053;-48
2023/03/16 10:21:39;;;;;;;4.53;3.20;;;;;;;20.22;41.28;97436.22;10414762;28;20049;-47
2023/03/16 10:27:00;;;;;;;3.60;3.08;;;;;;;20.23;41.53;97437.81;10414587;28;20053;-48
2023/03/16 10:32:20;;;;;;;4.82;3.20;;;;;;;20.25;41.60;97441.00;10428527;28;20045;-46
2023/03/16 10:37:39;;;;;;;6.32;3.08;;;;;;;20.26;41.66;97442.59;10432265;28;20041;-45
2023/03/16 10:43:26;;;;;;;4.95;2.92;;;;;;;20.27;41.64;97438.00;10427474;28;20056;-46
2023/03/16 10:49:00;;;;;;;5.22;3.17;;;;;;;20.27;42.00;97441.50;10407997;28;20050;-46
2023/03/16 10:54:38;;;;;;;4.72;3.03;;;;;;;20.28;41.94;97434.16;10420981;28;20092;-48
2023/03/16 11:00:13;;;;;;;3.55;2.80;;;;;;;20.28;41.90;97432.25;10405175;28;20408;-47
2023/03/16 11:05:33;;;;;;;3.72;2.60;;;;;;;20.28;42.07;97428.75;10417896;28;20516;-47
2023/03/16 11:10:58;;;;;;;4.78;2.50;;;;;;;20.29;42.17;97430.34;10418137;28;20083;-46
2023/03/16 11:16:23;;;;;;;3.42;2.45;;;;;;;20.30;42.17;97415.69;10434154;28;20076;-49
2023/03/16 11:21:53;;;;;;;4.00;2.65;;;;;;;20.31;42.37;97420.00;10421635;28;20061;-48
2023/03/16 11:27:39;;;;;;;3.75;2.78;;;;;;;20.29;42.27;97404.09;10420294;28;20053;-46
2023/03/16 11:32:59;;;;;;;3.80;2.20;;;;;;;20.30;42.41;97394.06;10395395;28;20058;-45
2023/03/16 11:38:32;;;;;;;3.15;2.47;;;;;;;20.29;42.61;97390.56;10420914;28;20057;-49
2023/03/16 11:43:56;;;;;;;3.95;2.50;;;;;;;20.28;42.58;97375.44;10405856;28;20058;-46
2023/03/16 11:49:27;;;;;;;2.70;2.33;;;;;;;20.28;42.71;97378.13;10420136;28;20065;-47
2023/03/16 11:55:09;;;;;;;2.58;2.10;;;;;;;20.28;42.66;97380.03;10419996;28;20057;-47
2023/03/16 12:00:37;;;;;;;3.22;2.20;;;;;;;20.28;42.69;97378.13;10405333;28;20413;-47
2023/03/16 12:06:06;;;;;;;3.97;2.20;;;;;;;20.28;42.85;97378.13;10420024;28;20050;-45
2023/03/16 12:11:36;;;;;;;3.75;2.30;;;;;;;20.27;42.74;97368.44;10433020;28;20042;-47
2023/03/16 12:17:15;;;;;;;2.50;2.08;;;;;;;20.27;42.78;97368.44;10404558;28;20072;-47
2023/03/16 12:23:01;;;;;;;2.78;2.20;;;;;;;20.27;42.85;97360.31;10404284;28;20056;-47
2023/03/16 12:28:24;;;;;;;2.55;2.03;;;;;;;20.28;42.96;97358.41;10417411;28;20497;-46
2023/03/16 12:34:04;;;;;;;2.22;2.00;;;;;;;20.27;42.96;97348.72;10418718;28;20061;-47
2023/03/16 12:39:50;;;;;;;2.60;2.00;;;;;;;20.26;42.98;97350.59;10418569;28;20050;-47
2023/03/16 12:45:30;;;;;;;2.95;2.20;;;;;;;20.26;43.04;97347.88;10417910;28;20099;-48
2023/03/16 12:50:56;;;;;;;2.72;1.95;;;;;;;20.26;43.16;97344.41;10403104;28;20489;-46
2023/03/16 12:56:37;;;;;;;3.00;2.10;;;;;;;20.25;43.29;97329.28;10416998;28;20057;-47
2023/03/16 13:01:57;;;;;;;2.25;1.95;;;;;;;20.25;43.21;97342.81;10417534;28;20401;-48
2023/03/16 13:07:20;;;;;;;2.03;1.80;;;;;;;20.25;43.28;97334.69;10417835;28;20425;-50
2023/03/16 13:12:40;;;;;;;2.15;1.90;;;;;;;20.24;43.28;97331.19;10402639;28;20080;-48
2023/03/16 13:18:15;;;;;;;3.17;1.92;;;;;;;20.24;43.23;97333.09;10415548;28;20045;-45
2023/03/16 13:23:58;;;;;;;2.28;1.70;;;;;;;20.23;43.41;97323.38;10416493;28;20049;-47
2023/03/16 13:29:26;;;;;;;2.00;1.70;;;;;;;20.21;43.26;97318.31;10416739;28;20398;-48
2023/03/16 13:34:48;;;;;;;2.30;1.80;;;;;;;20.20;43.44;97326.72;10416027;28;20497;-48
2023/03/16 13:40:38;;;;;;;4.30;1.88;;;;;;;20.19;43.24;97317.81;10416499;28;20045;-48
2023/03/16 13:45:58;;;;;;;2.20;1.73;;;;;;;20.19;43.29;97312.41;10394405;28;20124;-46
2023/03/16 13:51:21;;;;;;;1.92;1.63;;;;;;;20.17;43.39;97306.53;10428887;28;20048;-48
2023/03/16 13:56:42;;;;;;;2.67;1.83;;;;;;;20.17;43.44;97301.09;10400462;28;20152;-45
2023/03/16 14:02:01;;;;;;;2.42;1.90;;;;;;;20.16;43.44;97302.19;10414909;28;20053;-46
2023/03/16 14:07:23;;;;;;;1.85;1.60;;;;;;;20.17;43.45;97297.59;10414708;28;20489;-47
2023/03/16 14:12:53;;;;;;;1.63;1.40;;;;;;;20.12;43.37;97285.81;10414277;28;20389;-47
2023/03/16 14:18:20;;;;;;;1.52;1.42;;;;;;;20.12;43.59;97274.19;10415298;28;20049;-48
2023/03/16 14:23:47;;;;;;;3.95;1.90;;;;;;;20.11;43.53;97275.28;10400432;28;20049;-48
2023/03/16 14:29:25;;;;;;;2.15;1.60;;;;;;;20.11;43.64;97270.72;10400093;28;20045;-47
2023/03/16 14:34:48;;;;;;;2.00;1.58;;;;;;;20.10;43.84;97273.72;10415450;28;20366;-46
2023/03/16 14:40:21;;;;;;;1.55;1.33;;;;;;;20.09;43.67;97262.09;10415108;28;20417;-46
2023/03/16 14:45:41;;;;;;;2.15;1.60;;;;;;;20.08;43.74;97251.59;10414111;28;20549;-47
2023/03/16 14:51:03;;;;;;;1.50;1.40;;;;;;;20.08;43.75;97235.38;10399732;28;20065;-48
2023/03/16 14:56:22;;;;;;;1.95;1.48;;;;;;;20.08;43.92;97238.88;10413673;28;20057;-45
2023/03/16 15:01:43;;;;;;;2.05;1.42;;;;;;;20.08;43.82;97240.78;10414229;28;20057;-45
2023/03/16 15:07:19;;;;;;;2.22;1.45;;;;;;;20.06;43.94;97232.97;10427253;28;20045;-49
2023/03/16 15:12:40;;;;;;;2.08;1.48;;;;;;;20.06;43.93;97235.69;10399485;28;20142;-47
2023/03/16 15:17:59;;;;;;;1.73;1.50;;;;;;;20.06;43.95;97240.31;10413511;28;20050;-49
2023/03/16 15:23:18;;;;;;;1.33;1.23;;;;;;;20.05;43.95;97241.41;10427634;28;20053;-47
2023/03/16 15:28:38;;;;;;;2.25;1.40;;;;;;;20.04;44.13;97240.63;10421716;28;20060;-48
2023/03/16 15:33:58;;;;;;;1.55;1.35;;;;;;;20.03;44.09;97241.75;10421575;28;20061;-48
2023/03/16 15:39:23;;;;;;;2.25;1.60;;;;;;;20.03;44.17;97238.22;10434323;28;20504;-47
2023/03/16 15:44:43;;;;;;;1.42;1.33;;;;;;;20.03;44.18;97238.22;10406131;28;20064;-46
2023/03/16 15:50:04;;;;;;;2.70;1.30;;;;;;;20.00;42.86;97238.88;10420429;28;20126;-45
2023/03/16 15:55:35;;;;;;;1.45;1.35;;;;;;;19.96;42.51;97244.09;10423273;28;20056;-48
2023/03/16 16:00:56;;;;;;;1.83;1.67;;;;;;;19.80;37.93;97241.06;10405107;28;20054;-46
2023/03/16 16:06:16;;;;;;;1.65;1.40;;;;;;;19.82;40.55;97233.44;10419079;28;20049;-49
2023/03/16 16:11:36;;;;;;;2.60;1.55;;;;;;;19.83;40.57;97235.00;10419043;28;20053;-46
2023/03/16 16:16:55;;;;;;;2.72;1.85;;;;;;;19.86;41.81;97236.31;10419280;28;20103;-47
2023/03/16 16:22:15;;;;;;;3.92;1.65;;;;;;;19.85;42.00;97216.56;10419437;28;20049;-45
2023/03/16 16:27:34;;;;;;;3.65;1.90;;;;;;;19.84;42.40;97222.31;10418861;28;20432;-47
2023/03/16 16:32:55;;;;;;;2.95;1.80;;;;;;;19.84;43.62;97227.72;10418201;28;20061;-46
2023/03/16 16:38:15;;;;;;;3.92;1.48;;;;;;;19.84;44.05;97228.50;10417790;28;20050;-50
2023/03/16 16:43:46;;;;;;;1.90;1.55;;;;;;;19.83;43.92;97221.50;10418381;28;20134;-48
2023/03/16 16:49:11;;;;;;;3.38;1.50;;;;;;;19.83;43.79;97245.81;10418471;28;20052;-48
2023/03/16 16:54:31;;;;;;;2.83;1.58;;;;;;;19.81;43.92;97248.03;10417100;28;20057;-45
2023/03/16 16:59:51;;;;;;;2.58;1.65;;;;;;;19.78;42.05;97227.06;10417179;28;20057;-47
2023/03/16 17:05:20;;;;;;;1.88;1.65;;;;;;;19.76;43.29;97229.28;10417480;28;20057;-46
2023/03/16 17:10:40;;;;;;;2.08;1.65;;;;;;;19.75;43.24;97230.38;10417549;28;20119;-46
2023/03/16 17:16:00;;;;;;;4.65;1.88;;;;;;;19.73;43.13;97227.97;10417237;28;20057;-45
2023/03/16 17:21:22;;;;;;;4.55;1.90;;;;;;;19.73;43.69;97236.09;10417311;28;20057;-46
2023/03/16 17:26:48;;;;;;;2.33;1.80;;;;;;;19.72;43.76;97217.50;10416833;28;20076;-47
2023/03/16 17:32:34;;;;;;;2.38;1.75;;;;;;;19.70;43.85;97223.19;10416535;28;20053;-47
2023/03/16 17:37:53;;;;;;;3.22;2.05;;;;;;;19.69;43.79;97228.91;10416307;28;20053;-47
2023/03/16 17:43:19;;;;;;;3.28;2.08;;;;;;;19.67;43.96;97223.03;10400843;28;20494;-48
2023/03/16 17:48:39;;;;;;;4.72;2.70;;;;;;;19.64;42.22;97231.75;10400288;28;20049;-47
2023/03/16 17:53:58;;;;;;;4.95;3.63;;;;;;;19.55;40.05;97226.31;10415536;28;20060;-48
2023/03/16 17:59:19;;;;;;;3.72;2.58;;;;;;;19.56;42.07;97220.63;10428794;28;20095;-46
2023/03/16 18:04:38;;;;;;;4.95;2.90;;;;;;;19.53;40.89;97221.22;10415443;28;20437;-49
2023/03/16 18:09:58;;;;;;;5.28;3.10;;;;;;;19.53;43.45;97215.81;10414785;28;20060;-47
2023/03/16 18:15:28;;;;;;;4.28;3.03;;;;;;;19.55;43.98;97216.31;10414325;28;20060;-46
2023/03/16 18:20:49;;;;;;;2.67;2.15;;;;;;;19.54;44.46;97211.22;10414885;28;20053;-46
2023/03/16 18:26:10;;;;;;;3.78;3.00;;;;;;;19.52;43.88;97208.84;10414911;28;20059;-48
2023/03/16 18:31:29;;;;;;;4.65;2.80;;;;;;;19.53;44.43;97212.34;10414397;28;20129;-49
2023/03/16 18:36:51;;;;;;;6.00;2.60;;;;;;;19.50;44.71;97205.66;10414755;28;20052;-46
2023/03/16 18:42:28;;;;;;;4.78;3.08;;;;;;;19.50;44.94;97192.16;10399394;28;20049;-46
2023/03/16 18:47:50;;;;;;;4.47;2.78;;;;;;;19.50;44.96;97194.84;10427777;28;20100;-47
2023/03/16 18:53:16;;;;;;;3.42;2.72;;;;;;;19.49;45.15;97212.16;10414203;28;20065;-48
2023/03/16 18:58:35;;;;;;;6.28;3.00;;;;;;;19.48;45.13;97213.28;10414001;28;20050;-47
2023/03/16 19:03:56;;;;;;;4.43;3.10;;;;;;;19.46;45.31;97212.78;10422306;28;20131;-48
2023/03/16 19:09:19;;;;;;;3.67;2.38;;;;;;;19.46;46.29;97199.25;10406921;28;20060;-48
2023/03/16 19:14:39;;;;;;;3.33;2.45;;;;;;;19.46;46.00;97204.66;10406524;28;20068;-46
2023/03/16 19:19:58;;;;;;;4.93;2.88;;;;;;;19.45;46.12;97195.00;10421840;28;20056;-46
2023/03/16 19:25:23;;;;;;;3.65;2.70;;;;;;;19.45;46.37;97188.78;10421678;28;20417;-47
2023/03/16 19:30:46;;;;;;;5.03;2.42;;;;;;;19.43;46.56;97186.41;10406895;28;20062;-46
2023/03/16 19:36:09;;;;;;;5.15;2.63;;;;;;;19.42;46.92;97202.91;10421385;28;20355;-46
2023/03/16 19:41:32;;;;;;;4.03;2.72;;;;;;;19.42;47.11;97205.63;10406257;28;20053;-48
2023/03/16 19:46:51;;;;;;;4.80;2.70;;;;;;;19.41;47.46;97195.94;10421166;28;20079;-48
2023/03/16 19:52:12;;;;;;;4.10;2.30;;;;;;;19.41;47.98;97193.25;10420366;28;20061;-46
2023/03/16 19:57:32;;;;;;;3.90;2.30;;;;;;;19.39;48.72;97190.84;10405024;28;20493;-47
2023/03/16 20:02:57;;;;;;;4.28;2.40;;;;;;;19.39;48.78;97171.94;10433594;28;20045;-49
2023/03/16 20:08:25;;;;;;;2.90;2.40;;;;;;;19.38;48.93;97164.91;10433431;28;20053;-48
2023/03/16 20:13:46;;;;;;;4.37;2.30;;;;;;;19.37;48.62;97171.44;10418780;28;20058;-48
2023/03/16 20:19:12;;;;;;;4.70;2.28;;;;;;;19.35;48.95;97173.66;10432563;28;20042;-48
2023/03/16 20:24:32;;;;;;;5.13;2.35;;;;;;;19.36;49.08;97172.53;10405037;28;20061;-49
2023/03/16 20:29:52;;;;;;;4.43;2.47;;;;;;;19.34;49.25;97174.75;10418835;28;20053;-45
2023/03/16 20:35:19;;;;;;;5.13;2.20;;;;;;;19.33;49.27;97168.56;10440863;28;20052;-51
2023/03/16 20:40:43;;;;;;;3.28;2.20;;;;;;;19.33;49.69;97159.69;10460198;28;20132;-45
2023/03/16 20:46:04;;;;;;;3.13;2.38;;;;;;;19.32;49.57;97166.19;10472966;28;20049;-46
2023/03/16 20:51:23;;;;;;;3.47;2.30;;;;;;;19.30;49.88;97152.19;10459873;28;20053;-45
2023/03/16 20:56:43;;;;;;;4.05;2.15;;;;;;;19.29;49.88;97159.50;10472649;28;20045;-46
2023/03/16 21:02:13;;;;;;;12.18;2.10;;;;;;;19.28;49.99;97152.50;10459075;28;20065;-45
2023/03/16 21:07:32;;;;;;;4.18;2.05;;;;;;;19.28;50.05;97154.41;10443276;28;20508;-49
2023/03/16 21:12:54;;;;;;;3.35;2.08;;;;;;;19.28;50.08;97157.13;10458709;28;20056;-49
2023/03/16 21:18:17;;;;;;;3.38;2.00;;;;;;;19.26;50.19;97162.81;10443585;28;20060;-45
2023/03/16 21:23:37;;;;;;;3.90;2.10;;;;;;;19.27;50.40;97163.63;10458191;28;20052;-47
2023/03/16 21:28:58;;;;;;;3.38;2.03;;;;;;;19.25;50.10;97160.44;10458123;28;20053;-46
2023/03/16 21:34:23;;;;;;;3.88;2.00;;;;;;;19.24;50.11;97148.84;10457971;28;20063;-47
2023/03/16 21:39:46;;;;;;;3.33;1.73;;;;;;;19.23;50.11;97149.97;10458170;28;20059;-46
2023/03/16 21:45:06;;;;;;;2.30;1.95;;;;;;;19.22;50.05;97150.25;10456886;28;20139;-47
2023/03/16 21:50:30;;;;;;;3.63;1.77;;;;;;;19.20;50.15;97153.28;10457274;28;20057;-46
2023/03/16 21:55:50;;;;;;;2.70;1.85;;;;;;;19.19;50.01;97150.88;10456699;28;20067;-46
2023/03/16 22:01:19;;;;;;;2.38;1.92;;;;;;;19.17;50.05;97135.78;10457420;28;20064;-47
2023/03/16 22:06:40;;;;;;;1.92;1.65;;;;;;;19.16;50.08;97136.09;10456819;28;20049;-47
2023/03/16 22:12:00;;;;;;;2.97;2.00;;;;;;;19.13;50.13;97129.44;10457270;28;20064;-46
2023/03/16 22:17:21;;;;;;;4.00;2.38;;;;;;;19.12;50.11;97135.94;10456573;28;20049;-45
2023/03/16 22:22:40;;;;;;;2.67;2.15;;;;;;;19.11;50.12;97150.56;10456495;28;20060;-46
2023/03/16 22:28:01;;;;;;;3.00;1.77;;;;;;;19.11;50.26;97139.75;10456314;28;20054;-45
2023/03/16 22:33:27;;;;;;;3.47;1.90;;;;;;;19.09;50.15;97136.56;10456606;28;20053;-46
2023/03/16 22:38:54;;;;;;;3.47;2.03;;;;;;;19.08;50.19;97144.97;10464988;28;20114;-45
2023/03/16 22:44:20;;;;;;;2.70;1.80;;;;;;;19.07;50.17;97127.16;10449568;28;20053;-47
2023/03/16 22:49:40;;;;;;;3.33;2.03;;;;;;;19.06;50.08;97137.19;10464359;28;20053;-45
2023/03/16 22:55:00;;;;;;;3.33;1.80;;;;;;;19.04;50.19;97144.81;10463601;28;20057;-46
2023/03/16 23:00:20;;;;;;;3.03;1.92;;;;;;;19.05;50.18;97162.59;10464283;28;20064;-46
2023/03/16 23:05:40;;;;;;;2.28;1.80;;;;;;;19.02;50.11;97140.81;10463604;28;20106;-45
2023/03/16 23:11:00;;;;;;;2.45;2.08;;;;;;;19.02;50.07;97138.13;10476863;28;20045;-49
2023/03/16 23:16:23;;;;;;;2.97;1.92;;;;;;;19.00;50.18;97141.13;10461750;28;20044;-45
2023/03/16 23:21:43;;;;;;;3.10;1.92;;;;;;;18.99;50.12;97136.03;10461852;28;20052;-45
2023/03/16 23:27:03;;;;;;;2.65;1.80;;;;;;;18.98;50.22;97134.47;10462381;28;20539;-45
2023/03/16 23:32:23;;;;;;;3.05;2.00;;;;;;;18.97;50.16;97133.66;10461126;28;20056;-45
2023/03/16 23:37:42;;;;;;;2.17;1.70;;;;;;;18.95;50.00;97119.66;10462618;28;20052;-45
2023/03/16 23:43:02;;;;;;;2.35;1.92;;;;;;;18.93;49.98;97111.09;10462157;28;20504;-47
2023/03/16 23:48:22;;;;;;;3.03;2.30;;;;;;;18.93;50.10;97121.88;10447411;28;20385;-45
2023/03/16 23:53:42;;;;;;;2.92;1.98;;;;;;;18.91;49.90;97105.19;10461614;28;20402;-46
2023/03/16 23:59:01;;;;;;;2.72;1.73;;;;;;;18.89;49.96;97099.31;10461536;28;20053;-45
